Accueil
METAR-TAF:

METAR-TAF

Aéroports :

Aéroport de Toussus-le-Noble

Toussus-le-Noble, France

latitude: 48-46N, longitude: 002-06E, altitude: 164 m

Observation

Le bulletin a été fait il y a 35 minutes, à 08:30 UTC
Vent 7 kt de nord
Température 12°C
Humidité 88%
Pression 1025 hPa
Visibilité 10 km ou plus

METAR: LFPN 140830Z AUTO 36007KT 9999 OVC008/// 12/10 Q1025 BECMG SCT016

Heure: 11:05 (09:05 UTC)

Prévision

Le bulletin a été fait il y a 2 heures et 1 minutes, à 07:04 UTC
Prévision valable du 14 à 07 UTC au 14 à 15 UTC
Vent 7 kt de nord/nord-ouest
Visibilité 10 km ou plus
Nuages fragmentés à une hauteur de 600 ft
Temporairement
du 14 à 07 UTC au 14 à 08 UTC
Nuages fragmentés à une hauteur de 400 ft
Evoluant progressivement
du 14 à 08 UTC au 14 à 10 UTC
Nuages épars à une hauteur de 1600 ft

TAF: LFPN 140704Z 1407/1415 34007KT 9999 BKN006 TEMPO 1407/1408 BKN004 BECMG 1408/1410 SCT016

Observations et prévisions météorologiques de plus de 4000 aéroports (messages METAR et TAF).

Les stations disponibles sont représentées par des disques jaunes et rouges sur la carte.

Passer la souris dessus pour voir le nom de la station.

Cliquer dessus pour voir les observations et prévisions météorologiques.

Pour changer de carte: cliquez sur les boutons verts avec une croix noire pour zoomer, sur le bouton vert avec un tiret pour effectuer un zoom arrière, ou sur les flèches vertes pour les cartes adjacentes.


METAR-TAF: